sensor_id;sensor_type;location;lat;lon;timestamp;P1;durP1;ratioP1;P2;durP2;ratioP2
74528;SDS011;63009;52.584;5.932;2023-06-10T00:01:38;11.82;;;4.32;;
74528;SDS011;63009;52.584;5.932;2023-06-10T00:04:04;11.35;;;3.90;;
74528;SDS011;63009;52.584;5.932;2023-06-10T00:06:29;10.95;;;4.00;;
74528;SDS011;63009;52.584;5.932;2023-06-10T00:09:07;12.02;;;3.97;;
74528;SDS011;63009;52.584;5.932;2023-06-10T00:11:35;11.75;;;4.05;;
74528;SDS011;63009;52.584;5.932;2023-06-10T00:14:01;11.93;;;4.15;;
74528;SDS011;63009;52.584;5.932;2023-06-10T00:16:27;9.75;;;3.92;;
74528;SDS011;63009;52.584;5.932;2023-06-10T00:18:53;13.23;;;4.20;;
74528;SDS011;63009;52.584;5.932;2023-06-10T00:21:20;16.63;;;4.15;;
74528;SDS011;63009;52.584;5.932;2023-06-10T00:23:46;12.32;;;4.13;;
74528;SDS011;63009;52.584;5.932;2023-06-10T00:26:11;9.98;;;3.55;;
74528;SDS011;63009;52.584;5.932;2023-06-10T00:28:36;10.33;;;3.63;;
74528;SDS011;63009;52.584;5.932;2023-06-10T00:31:02;10.27;;;4.40;;
74528;SDS011;63009;52.584;5.932;2023-06-10T00:33:29;11.60;;;3.95;;
74528;SDS011;63009;52.584;5.932;2023-06-10T00:35:54;9.43;;;3.97;;
74528;SDS011;63009;52.584;5.932;2023-06-10T00:38:19;11.03;;;4.30;;
74528;SDS011;63009;52.584;5.932;2023-06-10T00:40:45;11.00;;;3.90;;
74528;SDS011;63009;52.584;5.932;2023-06-10T00:43:10;10.65;;;3.90;;
74528;SDS011;63009;52.584;5.932;2023-06-10T00:45:36;10.32;;;4.03;;
74528;SDS011;63009;52.584;5.932;2023-06-10T00:48:01;10.17;;;3.73;;
74528;SDS011;63009;52.584;5.932;2023-06-10T00:50:27;10.27;;;4.38;;
74528;SDS011;63009;52.584;5.932;2023-06-10T00:52:53;10.50;;;4.50;;
74528;SDS011;63009;52.584;5.932;2023-06-10T00:55:19;9.90;;;3.83;;
74528;SDS011;63009;52.584;5.932;2023-06-10T00:57:45;11.40;;;4.10;;
74528;SDS011;63009;52.584;5.932;2023-06-10T01:00:13;10.30;;;4.43;;
74528;SDS011;63009;52.584;5.932;2023-06-10T01:02:40;9.88;;;4.00;;
74528;SDS011;63009;52.584;5.932;2023-06-10T01:05:06;11.32;;;4.80;;
74528;SDS011;63009;52.584;5.932;2023-06-10T01:10:24;12.60;;;4.07;;
74528;SDS011;63009;52.584;5.932;2023-06-10T01:13:03;9.18;;;3.83;;
74528;SDS011;63009;52.584;5.932;2023-06-10T01:15:33;9.63;;;3.95;;
74528;SDS011;63009;52.584;5.932;2023-06-10T01:18:00;11.98;;;4.57;;
74528;SDS011;63009;52.584;5.932;2023-06-10T01:20:28;11.20;;;3.67;;
74528;SDS011;63009;52.584;5.932;2023-06-10T01:22:54;11.07;;;4.75;;
74528;SDS011;63009;52.584;5.932;2023-06-10T01:25:21;10.35;;;3.97;;
74528;SDS011;63009;52.584;5.932;2023-06-10T01:28:13;9.98;;;4.63;;
74528;SDS011;63009;52.584;5.932;2023-06-10T01:30:48;12.60;;;4.30;;
74528;SDS011;63009;52.584;5.932;2023-06-10T01:33:27;11.30;;;4.18;;
74528;SDS011;63009;52.584;5.932;2023-06-10T01:35:56;9.70;;;3.80;;
74528;SDS011;63009;52.584;5.932;2023-06-10T01:38:23;10.63;;;4.00;;
74528;SDS011;63009;52.584;5.932;2023-06-10T01:40:51;8.98;;;3.95;;
74528;SDS011;63009;52.584;5.932;2023-06-10T01:43:19;10.63;;;3.88;;
74528;SDS011;63009;52.584;5.932;2023-06-10T01:45:45;10.30;;;4.43;;
74528;SDS011;63009;52.584;5.932;2023-06-10T01:48:10;11.43;;;4.97;;
74528;SDS011;63009;52.584;5.932;2023-06-10T01:50:36;12.20;;;4.15;;
74528;SDS011;63009;52.584;5.932;2023-06-10T01:53:01;12.63;;;4.70;;
74528;SDS011;63009;52.584;5.932;2023-06-10T01:55:28;9.95;;;4.05;;
74528;SDS011;63009;52.584;5.932;2023-06-10T01:57:53;10.37;;;3.73;;
74528;SDS011;63009;52.584;5.932;2023-06-10T02:00:19;9.98;;;4.38;;
74528;SDS011;63009;52.584;5.932;2023-06-10T02:02:44;9.73;;;4.17;;
74528;SDS011;63009;52.584;5.932;2023-06-10T02:05:09;14.03;;;4.20;;
74528;SDS011;63009;52.584;5.932;2023-06-10T02:07:35;9.63;;;3.97;;
74528;SDS011;63009;52.584;5.932;2023-06-10T02:10:00;10.33;;;3.83;;
74528;SDS011;63009;52.584;5.932;2023-06-10T02:12:25;10.33;;;3.97;;
74528;SDS011;63009;52.584;5.932;2023-06-10T02:14:50;12.77;;;4.83;;
74528;SDS011;63009;52.584;5.932;2023-06-10T02:17:16;11.47;;;4.50;;
74528;SDS011;63009;52.584;5.932;2023-06-10T02:19:41;10.93;;;4.00;;
74528;SDS011;63009;52.584;5.932;2023-06-10T02:22:19;9.32;;;4.30;;
74528;SDS011;63009;52.584;5.932;2023-06-10T02:24:48;10.38;;;4.35;;
74528;SDS011;63009;52.584;5.932;2023-06-10T02:27:15;10.35;;;4.60;;
74528;SDS011;63009;52.584;5.932;2023-06-10T02:29:41;11.48;;;5.05;;
74528;SDS011;63009;52.584;5.932;2023-06-10T02:32:07;11.18;;;4.63;;
74528;SDS011;63009;52.584;5.932;2023-06-10T02:34:32;11.90;;;5.07;;
74528;SDS011;63009;52.584;5.932;2023-06-10T02:36:58;12.32;;;5.70;;
74528;SDS011;63009;52.584;5.932;2023-06-10T02:39:23;11.63;;;5.18;;
74528;SDS011;63009;52.584;5.932;2023-06-10T02:41:49;11.63;;;4.65;;
74528;SDS011;63009;52.584;5.932;2023-06-10T02:44:14;11.13;;;4.67;;
74528;SDS011;63009;52.584;5.932;2023-06-10T02:46:39;11.73;;;5.07;;
74528;SDS011;63009;52.584;5.932;2023-06-10T02:49:05;16.43;;;5.13;;
74528;SDS011;63009;52.584;5.932;2023-06-10T02:51:30;11.17;;;5.07;;
74528;SDS011;63009;52.584;5.932;2023-06-10T02:53:55;10.03;;;4.63;;
74528;SDS011;63009;52.584;5.932;2023-06-10T02:56:20;13.45;;;5.60;;
74528;SDS011;63009;52.584;5.932;2023-06-10T02:58:46;12.68;;;5.15;;
74528;SDS011;63009;52.584;5.932;2023-06-10T03:01:13;14.93;;;5.63;;
74528;SDS011;63009;52.584;5.932;2023-06-10T03:03:38;11.93;;;4.82;;
74528;SDS011;63009;52.584;5.932;2023-06-10T03:06:07;11.40;;;4.65;;
74528;SDS011;63009;52.584;5.932;2023-06-10T03:08:33;11.82;;;5.05;;
74528;SDS011;63009;52.584;5.932;2023-06-10T03:10:58;12.60;;;5.10;;
74528;SDS011;63009;52.584;5.932;2023-06-10T03:13:24;14.10;;;5.37;;
74528;SDS011;63009;52.584;5.932;2023-06-10T03:15:49;12.63;;;5.60;;
74528;SDS011;63009;52.584;5.932;2023-06-10T03:18:14;11.77;;;5.20;;
74528;SDS011;63009;52.584;5.932;2023-06-10T03:20:40;11.10;;;5.50;;
74528;SDS011;63009;52.584;5.932;2023-06-10T03:23:05;13.80;;;4.88;;
74528;SDS011;63009;52.584;5.932;2023-06-10T03:25:34;12.93;;;5.18;;
74528;SDS011;63009;52.584;5.932;2023-06-10T03:27:59;14.90;;;5.10;;
74528;SDS011;63009;52.584;5.932;2023-06-10T03:30:25;12.90;;;5.45;;
74528;SDS011;63009;52.584;5.932;2023-06-10T03:32:52;12.68;;;5.88;;
74528;SDS011;63009;52.584;5.932;2023-06-10T03:35:17;14.05;;;5.70;;
74528;SDS011;63009;52.584;5.932;2023-06-10T03:37:42;14.18;;;4.90;;
74528;SDS011;63009;52.584;5.932;2023-06-10T03:40:08;13.00;;;5.77;;
74528;SDS011;63009;52.584;5.932;2023-06-10T03:42:34;16.27;;;5.90;;
74528;SDS011;63009;52.584;5.932;2023-06-10T03:44:59;11.85;;;5.20;;
74528;SDS011;63009;52.584;5.932;2023-06-10T03:47:25;11.32;;;5.35;;
74528;SDS011;63009;52.584;5.932;2023-06-10T03:49:50;13.40;;;5.63;;
74528;SDS011;63009;52.584;5.932;2023-06-10T03:52:15;13.30;;;5.60;;
74528;SDS011;63009;52.584;5.932;2023-06-10T03:54:40;12.70;;;5.43;;
74528;SDS011;63009;52.584;5.932;2023-06-10T03:57:06;13.13;;;5.77;;
74528;SDS011;63009;52.584;5.932;2023-06-10T03:59:31;14.00;;;6.00;;
74528;SDS011;63009;52.584;5.932;2023-06-10T04:01:57;11.02;;;5.45;;
74528;SDS011;63009;52.584;5.932;2023-06-10T04:04:22;11.60;;;5.30;;
74528;SDS011;63009;52.584;5.932;2023-06-10T04:06:48;14.50;;;6.00;;
74528;SDS011;63009;52.584;5.932;2023-06-10T04:09:14;20.92;;;5.63;;
74528;SDS011;63009;52.584;5.932;2023-06-10T04:11:41;10.75;;;5.38;;
74528;SDS011;63009;52.584;5.932;2023-06-10T04:14:06;12.52;;;5.72;;
74528;SDS011;63009;52.584;5.932;2023-06-10T04:16:32;13.02;;;5.78;;
74528;SDS011;63009;52.584;5.932;2023-06-10T04:18:58;13.30;;;6.65;;
74528;SDS011;63009;52.584;5.932;2023-06-10T04:21:25;13.10;;;5.90;;
74528;SDS011;63009;52.584;5.932;2023-06-10T04:23:51;10.88;;;5.03;;
74528;SDS011;63009;52.584;5.932;2023-06-10T04:26:16;11.02;;;5.65;;
74528;SDS011;63009;52.584;5.932;2023-06-10T04:28:42;15.30;;;5.23;;
74528;SDS011;63009;52.584;5.932;2023-06-10T04:31:08;11.55;;;5.85;;
74528;SDS011;63009;52.584;5.932;2023-06-10T04:33:33;16.33;;;5.57;;
74528;SDS011;63009;52.584;5.932;2023-06-10T04:35:59;11.27;;;5.00;;
74528;SDS011;63009;52.584;5.932;2023-06-10T04:38:24;13.70;;;5.63;;
74528;SDS011;63009;52.584;5.932;2023-06-10T04:40:50;11.97;;;5.33;;
74528;SDS011;63009;52.584;5.932;2023-06-10T04:43:15;13.73;;;5.40;;
74528;SDS011;63009;52.584;5.932;2023-06-10T04:45:41;12.07;;;5.28;;
74528;SDS011;63009;52.584;5.932;2023-06-10T04:48:09;15.30;;;5.55;;
74528;SDS011;63009;52.584;5.932;2023-06-10T04:50:35;12.30;;;5.43;;
74528;SDS011;63009;52.584;5.932;2023-06-10T04:53:01;11.35;;;5.00;;
74528;SDS011;63009;52.584;5.932;2023-06-10T04:55:26;12.37;;;5.33;;
74528;SDS011;63009;52.584;5.932;2023-06-10T04:57:51;10.25;;;5.07;;
74528;SDS011;63009;52.584;5.932;2023-06-10T05:00:17;12.73;;;5.50;;
74528;SDS011;63009;52.584;5.932;2023-06-10T05:02:42;13.85;;;5.85;;
74528;SDS011;63009;52.584;5.932;2023-06-10T05:05:08;11.15;;;5.18;;
74528;SDS011;63009;52.584;5.932;2023-06-10T05:07:33;13.57;;;5.78;;
74528;SDS011;63009;52.584;5.932;2023-06-10T05:09:58;11.20;;;4.87;;
74528;SDS011;63009;52.584;5.932;2023-06-10T05:12:23;12.00;;;5.30;;
74528;SDS011;63009;52.584;5.932;2023-06-10T05:14:49;12.90;;;5.15;;
74528;SDS011;63009;52.584;5.932;2023-06-10T05:17:14;13.77;;;5.50;;
74528;SDS011;63009;52.584;5.932;2023-06-10T05:19:40;13.03;;;5.13;;
74528;SDS011;63009;52.584;5.932;2023-06-10T05:22:06;11.65;;;5.32;;
74528;SDS011;63009;52.584;5.932;2023-06-10T05:24:31;12.03;;;5.43;;
74528;SDS011;63009;52.584;5.932;2023-06-10T05:26:57;14.17;;;5.37;;
74528;SDS011;63009;52.584;5.932;2023-06-10T05:29:22;13.53;;;5.93;;
74528;SDS011;63009;52.584;5.932;2023-06-10T05:31:48;15.05;;;5.35;;
74528;SDS011;63009;52.584;5.932;2023-06-10T05:34:13;14.10;;;5.07;;
74528;SDS011;63009;52.584;5.932;2023-06-10T05:36:38;10.80;;;4.80;;
74528;SDS011;63009;52.584;5.932;2023-06-10T05:39:03;13.27;;;4.90;;
74528;SDS011;63009;52.584;5.932;2023-06-10T05:41:29;12.17;;;5.10;;
74528;SDS011;63009;52.584;5.932;2023-06-10T05:43:54;13.60;;;5.95;;
74528;SDS011;63009;52.584;5.932;2023-06-10T05:46:20;10.90;;;5.33;;
74528;SDS011;63009;52.584;5.932;2023-06-10T05:48:45;11.35;;;5.13;;
74528;SDS011;63009;52.584;5.932;2023-06-10T05:51:10;11.87;;;4.73;;
74528;SDS011;63009;52.584;5.932;2023-06-10T05:53:36;14.30;;;5.53;;
74528;SDS011;63009;52.584;5.932;2023-06-10T05:56:01;11.80;;;6.23;;
74528;SDS011;63009;52.584;5.932;2023-06-10T05:58:26;12.47;;;5.27;;
74528;SDS011;63009;52.584;5.932;2023-06-10T06:00:51;11.40;;;4.73;;
74528;SDS011;63009;52.584;5.932;2023-06-10T06:03:17;10.20;;;4.73;;
74528;SDS011;63009;52.584;5.932;2023-06-10T06:05:42;13.32;;;5.35;;
74528;SDS011;63009;52.584;5.932;2023-06-10T06:08:07;11.23;;;4.77;;
74528;SDS011;63009;52.584;5.932;2023-06-10T06:10:35;10.90;;;5.00;;
74528;SDS011;63009;52.584;5.932;2023-06-10T06:13:01;11.90;;;5.50;;
74528;SDS011;63009;52.584;5.932;2023-06-10T06:15:27;13.48;;;5.15;;
74528;SDS011;63009;52.584;5.932;2023-06-10T06:17:52;12.07;;;4.95;;
74528;SDS011;63009;52.584;5.932;2023-06-10T06:20:18;11.55;;;5.03;;
74528;SDS011;63009;52.584;5.932;2023-06-10T06:22:47;11.10;;;4.63;;
74528;SDS011;63009;52.584;5.932;2023-06-10T06:25:13;14.05;;;5.40;;
74528;SDS011;63009;52.584;5.932;2023-06-10T06:27:38;15.48;;;5.97;;
74528;SDS011;63009;52.584;5.932;2023-06-10T06:30:04;9.10;;;4.37;;
74528;SDS011;63009;52.584;5.932;2023-06-10T06:32:29;11.15;;;4.85;;
74528;SDS011;63009;52.584;5.932;2023-06-10T06:34:55;11.95;;;5.25;;
74528;SDS011;63009;52.584;5.932;2023-06-10T06:37:23;10.60;;;4.33;;
74528;SDS011;63009;52.584;5.932;2023-06-10T06:39:50;12.25;;;4.53;;
74528;SDS011;63009;52.584;5.932;2023-06-10T06:42:15;10.90;;;5.00;;
74528;SDS011;63009;52.584;5.932;2023-06-10T06:44:41;12.45;;;5.07;;
74528;SDS011;63009;52.584;5.932;2023-06-10T06:47:07;10.20;;;4.85;;
74528;SDS011;63009;52.584;5.932;2023-06-10T06:49:32;11.38;;;5.30;;
74528;SDS011;63009;52.584;5.932;2023-06-10T06:51:57;11.13;;;5.23;;
74528;SDS011;63009;52.584;5.932;2023-06-10T06:54:22;11.87;;;5.30;;
74528;SDS011;63009;52.584;5.932;2023-06-10T06:56:48;11.83;;;4.77;;
74528;SDS011;63009;52.584;5.932;2023-06-10T06:59:13;12.03;;;4.77;;
74528;SDS011;63009;52.584;5.932;2023-06-10T07:01:39;10.05;;;4.22;;
74528;SDS011;63009;52.584;5.932;2023-06-10T07:04:04;11.15;;;4.43;;
74528;SDS011;63009;52.584;5.932;2023-06-10T07:06:30;13.10;;;4.57;;
74528;SDS011;63009;52.584;5.932;2023-06-10T07:08:55;10.20;;;4.83;;
74528;SDS011;63009;52.584;5.932;2023-06-10T07:11:20;11.43;;;4.63;;
74528;SDS011;63009;52.584;5.932;2023-06-10T07:13:46;11.32;;;4.82;;
74528;SDS011;63009;52.584;5.932;2023-06-10T07:16:12;9.77;;;4.27;;
74528;SDS011;63009;52.584;5.932;2023-06-10T07:18:37;10.40;;;4.37;;
74528;SDS011;63009;52.584;5.932;2023-06-10T07:21:02;10.13;;;4.30;;
74528;SDS011;63009;52.584;5.932;2023-06-10T07:23:28;10.00;;;3.80;;
74528;SDS011;63009;52.584;5.932;2023-06-10T07:25:53;11.10;;;4.70;;
74528;SDS011;63009;52.584;5.932;2023-06-10T07:28:18;11.30;;;5.07;;
74528;SDS011;63009;52.584;5.932;2023-06-10T07:30:43;9.90;;;3.97;;
74528;SDS011;63009;52.584;5.932;2023-06-10T07:33:09;11.80;;;3.75;;
74528;SDS011;63009;52.584;5.932;2023-06-10T07:35:35;8.88;;;4.20;;
74528;SDS011;63009;52.584;5.932;2023-06-10T07:38:01;13.77;;;4.80;;
74528;SDS011;63009;52.584;5.932;2023-06-10T07:40:26;12.13;;;4.43;;
74528;SDS011;63009;52.584;5.932;2023-06-10T07:42:51;11.03;;;4.60;;
74528;SDS011;63009;52.584;5.932;2023-06-10T07:45:17;10.88;;;4.45;;
74528;SDS011;63009;52.584;5.932;2023-06-10T07:47:43;12.77;;;5.03;;
74528;SDS011;63009;52.584;5.932;2023-06-10T07:50:08;11.20;;;4.93;;
74528;SDS011;63009;52.584;5.932;2023-06-10T07:52:34;10.25;;;4.07;;
74528;SDS011;63009;52.584;5.932;2023-06-10T07:54:59;10.52;;;4.22;;
74528;SDS011;63009;52.584;5.932;2023-06-10T07:57:25;10.63;;;4.30;;
74528;SDS011;63009;52.584;5.932;2023-06-10T07:59:50;9.73;;;4.17;;
74528;SDS011;63009;52.584;5.932;2023-06-10T08:02:15;13.32;;;4.63;;
74528;SDS011;63009;52.584;5.932;2023-06-10T08:04:41;11.93;;;4.60;;
74528;SDS011;63009;52.584;5.932;2023-06-10T08:07:06;9.87;;;4.33;;
74528;SDS011;63009;52.584;5.932;2023-06-10T08:09:31;8.90;;;4.43;;
74528;SDS011;63009;52.584;5.932;2023-06-10T08:11:57;11.88;;;4.95;;
74528;SDS011;63009;52.584;5.932;2023-06-10T08:14:22;11.83;;;4.33;;
74528;SDS011;63009;52.584;5.932;2023-06-10T08:16:47;9.27;;;4.23;;
74528;SDS011;63009;52.584;5.932;2023-06-10T08:19:12;10.93;;;4.10;;
74528;SDS011;63009;52.584;5.932;2023-06-10T08:21:38;11.43;;;4.10;;
74528;SDS011;63009;52.584;5.932;2023-06-10T08:24:04;9.10;;;3.72;;
74528;SDS011;63009;52.584;5.932;2023-06-10T08:26:34;11.43;;;4.70;;
74528;SDS011;63009;52.584;5.932;2023-06-10T08:28:59;14.30;;;4.03;;
74528;SDS011;63009;52.584;5.932;2023-06-10T08:31:24;9.82;;;4.05;;
74528;SDS011;63009;52.584;5.932;2023-06-10T08:33:50;11.57;;;4.50;;
74528;SDS011;63009;52.584;5.932;2023-06-10T08:36:15;8.30;;;4.20;;
74528;SDS011;63009;52.584;5.932;2023-06-10T08:38:40;11.50;;;4.40;;
74528;SDS011;63009;52.584;5.932;2023-06-10T08:41:06;9.73;;;3.83;;
74528;SDS011;63009;52.584;5.932;2023-06-10T08:43:42;10.38;;;4.20;;
74528;SDS011;63009;52.584;5.932;2023-06-10T08:46:10;10.32;;;3.85;;
74528;SDS011;63009;52.584;5.932;2023-06-10T08:48:39;9.55;;;4.38;;
74528;SDS011;63009;52.584;5.932;2023-06-10T08:51:10;14.70;;;5.15;;
74528;SDS011;63009;52.584;5.932;2023-06-10T08:53:36;9.90;;;4.25;;
74528;SDS011;63009;52.584;5.932;2023-06-10T08:56:03;12.32;;;4.68;;
74528;SDS011;63009;52.584;5.932;2023-06-10T08:58:30;11.68;;;4.18;;
74528;SDS011;63009;52.584;5.932;2023-06-10T09:00:58;10.15;;;4.35;;
74528;SDS011;63009;52.584;5.932;2023-06-10T09:03:24;11.07;;;4.50;;
74528;SDS011;63009;52.584;5.932;2023-06-10T09:05:50;11.23;;;3.90;;
74528;SDS011;63009;52.584;5.932;2023-06-10T09:08:16;9.32;;;4.63;;
74528;SDS011;63009;52.584;5.932;2023-06-10T09:10:41;10.98;;;4.25;;
74528;SDS011;63009;52.584;5.932;2023-06-10T09:13:07;10.98;;;4.60;;
74528;SDS011;63009;52.584;5.932;2023-06-10T09:15:32;10.27;;;4.05;;
74528;SDS011;63009;52.584;5.932;2023-06-10T09:17:58;9.77;;;4.03;;
74528;SDS011;63009;52.584;5.932;2023-06-10T09:20:24;10.93;;;3.53;;
74528;SDS011;63009;52.584;5.932;2023-06-10T09:22:50;10.90;;;4.40;;
74528;SDS011;63009;52.584;5.932;2023-06-10T09:25:15;8.90;;;3.83;;
74528;SDS011;63009;52.584;5.932;2023-06-10T09:27:48;12.10;;;4.07;;
74528;SDS011;63009;52.584;5.932;2023-06-10T09:32:56;8.55;;;3.97;;
74528;SDS011;63009;52.584;5.932;2023-06-10T09:35:23;12.10;;;4.80;;
74528;SDS011;63009;52.584;5.932;2023-06-10T09:37:51;10.13;;;3.67;;
74528;SDS011;63009;52.584;5.932;2023-06-10T09:40:17;9.65;;;4.20;;
74528;SDS011;63009;52.584;5.932;2023-06-10T09:42:43;10.55;;;4.25;;
74528;SDS011;63009;52.584;5.932;2023-06-10T09:45:08;11.80;;;4.27;;
74528;SDS011;63009;52.584;5.932;2023-06-10T09:47:33;9.05;;;4.45;;
74528;SDS011;63009;52.584;5.932;2023-06-10T09:49:59;9.27;;;4.20;;
74528;SDS011;63009;52.584;5.932;2023-06-10T09:52:26;9.88;;;3.80;;
74528;SDS011;63009;52.584;5.932;2023-06-10T09:54:53;13.38;;;4.18;;
74528;SDS011;63009;52.584;5.932;2023-06-10T09:57:19;9.90;;;4.25;;
74528;SDS011;63009;52.584;5.932;2023-06-10T09:59:46;10.10;;;4.25;;
74528;SDS011;63009;52.584;5.932;2023-06-10T10:02:15;9.43;;;4.55;;
74528;SDS011;63009;52.584;5.932;2023-06-10T10:04:41;11.52;;;4.13;;
74528;SDS011;63009;52.584;5.932;2023-06-10T10:07:07;8.77;;;3.78;;
74528;SDS011;63009;52.584;5.932;2023-06-10T10:09:35;9.05;;;4.13;;
74528;SDS011;63009;52.584;5.932;2023-06-10T10:12:01;9.70;;;4.38;;
74528;SDS011;63009;52.584;5.932;2023-06-10T10:14:28;9.10;;;3.55;;
74528;SDS011;63009;52.584;5.932;2023-06-10T10:16:57;10.35;;;4.45;;
74528;SDS011;63009;52.584;5.932;2023-06-10T10:19:28;10.35;;;4.22;;
74528;SDS011;63009;52.584;5.932;2023-06-10T10:21:57;11.32;;;4.40;;
74528;SDS011;63009;52.584;5.932;2023-06-10T10:24:36;11.57;;;3.72;;
74528;SDS011;63009;52.584;5.932;2023-06-10T10:27:07;9.60;;;3.95;;
74528;SDS011;63009;52.584;5.932;2023-06-10T10:29:39;11.27;;;4.15;;
74528;SDS011;63009;52.584;5.932;2023-06-10T10:32:05;9.43;;;4.22;;
74528;SDS011;63009;52.584;5.932;2023-06-10T10:34:35;9.05;;;4.00;;
74528;SDS011;63009;52.584;5.932;2023-06-10T10:37:08;12.52;;;4.45;;
74528;SDS011;63009;52.584;5.932;2023-06-10T10:39:34;10.37;;;4.10;;
74528;SDS011;63009;52.584;5.932;2023-06-10T10:42:00;9.05;;;4.07;;
74528;SDS011;63009;52.584;5.932;2023-06-10T10:44:26;10.43;;;4.18;;
74528;SDS011;63009;52.584;5.932;2023-06-10T10:46:51;9.35;;;3.85;;
74528;SDS011;63009;52.584;5.932;2023-06-10T10:49:19;9.90;;;4.10;;
74528;SDS011;63009;52.584;5.932;2023-06-10T10:51:56;8.60;;;4.00;;
74528;SDS011;63009;52.584;5.932;2023-06-10T10:54:30;10.32;;;4.68;;
74528;SDS011;63009;52.584;5.932;2023-06-10T10:59:47;10.70;;;4.60;;
74528;SDS011;63009;52.584;5.932;2023-06-10T11:02:17;10.40;;;4.85;;
74528;SDS011;63009;52.584;5.932;2023-06-10T11:05:04;9.38;;;3.80;;
74528;SDS011;63009;52.584;5.932;2023-06-10T11:15:06;9.60;;;4.20;;
74528;SDS011;63009;52.584;5.932;2023-06-10T11:17:31;9.55;;;4.45;;
74528;SDS011;63009;52.584;5.932;2023-06-10T11:19:58;9.30;;;4.30;;
74528;SDS011;63009;52.584;5.932;2023-06-10T11:22:24;9.45;;;4.28;;
74528;SDS011;63009;52.584;5.932;2023-06-10T11:24:49;9.07;;;4.40;;
74528;SDS011;63009;52.584;5.932;2023-06-10T11:27:19;11.10;;;4.65;;
74528;SDS011;63009;52.584;5.932;2023-06-10T11:29:55;10.15;;;5.15;;
74528;SDS011;63009;52.584;5.932;2023-06-10T11:32:43;9.50;;;4.50;;
74528;SDS011;63009;52.584;5.932;2023-06-10T11:35:08;10.75;;;4.50;;
74528;SDS011;63009;52.584;5.932;2023-06-10T11:37:34;9.00;;;4.10;;
74528;SDS011;63009;52.584;5.932;2023-06-10T11:40:00;8.65;;;4.32;;
74528;SDS011;63009;52.584;5.932;2023-06-10T11:42:25;10.05;;;4.55;;
74528;SDS011;63009;52.584;5.932;2023-06-10T11:44:51;11.07;;;4.75;;
74528;SDS011;63009;52.584;5.932;2023-06-10T11:47:18;9.95;;;4.72;;
74528;SDS011;63009;52.584;5.932;2023-06-10T11:49:44;8.65;;;4.40;;
74528;SDS011;63009;52.584;5.932;2023-06-10T11:52:10;9.20;;;4.25;;
74528;SDS011;63009;52.584;5.932;2023-06-10T11:54:36;8.57;;;4.25;;
74528;SDS011;63009;52.584;5.932;2023-06-10T11:57:02;9.18;;;4.53;;
74528;SDS011;63009;52.584;5.932;2023-06-10T11:59:28;9.43;;;4.00;;
74528;SDS011;63009;52.584;5.932;2023-06-10T12:01:54;9.65;;;4.30;;
74528;SDS011;63009;52.584;5.932;2023-06-10T12:04:20;11.10;;;4.30;;
74528;SDS011;63009;52.584;5.932;2023-06-10T12:06:50;10.35;;;4.72;;
74528;SDS011;63009;52.584;5.932;2023-06-10T12:12:04;9.45;;;4.43;;
74528;SDS011;63009;52.584;5.932;2023-06-10T12:14:49;10.50;;;4.25;;
74528;SDS011;63009;52.584;5.932;2023-06-10T12:20:01;9.38;;;4.28;;
74528;SDS011;63009;52.584;5.932;2023-06-10T12:22:43;9.18;;;4.47;;
74528;SDS011;63009;52.584;5.932;2023-06-10T12:25:09;11.52;;;4.80;;
74528;SDS011;63009;52.584;5.932;2023-06-10T12:27:37;9.20;;;4.47;;
74528;SDS011;63009;52.584;5.932;2023-06-10T12:30:04;8.48;;;3.95;;
74528;SDS011;63009;52.584;5.932;2023-06-10T12:32:35;9.43;;;4.60;;
74528;SDS011;63009;52.584;5.932;2023-06-10T12:35:07;10.35;;;4.25;;
74528;SDS011;63009;52.584;5.932;2023-06-10T12:37:33;8.88;;;3.95;;
74528;SDS011;63009;52.584;5.932;2023-06-10T12:40:00;8.48;;;4.40;;
74528;SDS011;63009;52.584;5.932;2023-06-10T12:42:26;9.57;;;3.67;;
74528;SDS011;63009;52.584;5.932;2023-06-10T12:44:54;16.00;;;4.90;;
74528;SDS011;63009;52.584;5.932;2023-06-10T12:47:28;9.75;;;4.97;;
74528;SDS011;63009;52.584;5.932;2023-06-10T12:49:56;9.05;;;4.38;;
74528;SDS011;63009;52.584;5.932;2023-06-10T12:52:22;9.25;;;3.90;;
74528;SDS011;63009;52.584;5.932;2023-06-10T12:54:47;9.30;;;3.53;;
74528;SDS011;63009;52.584;5.932;2023-06-10T12:57:13;12.55;;;4.57;;
74528;SDS011;63009;52.584;5.932;2023-06-10T12:59:38;8.13;;;4.22;;
74528;SDS011;63009;52.584;5.932;2023-06-10T13:02:05;9.10;;;3.58;;
74528;SDS011;63009;52.584;5.932;2023-06-10T13:04:30;9.07;;;3.88;;
74528;SDS011;63009;52.584;5.932;2023-06-10T13:06:55;9.17;;;3.93;;
74528;SDS011;63009;52.584;5.932;2023-06-10T13:09:21;10.07;;;3.93;;
74528;SDS011;63009;52.584;5.932;2023-06-10T13:11:46;9.25;;;3.67;;
74528;SDS011;63009;52.584;5.932;2023-06-10T13:14:11;10.45;;;3.95;;
74528;SDS011;63009;52.584;5.932;2023-06-10T13:16:37;7.80;;;3.50;;
74528;SDS011;63009;52.584;5.932;2023-06-10T13:19:03;7.93;;;3.38;;
74528;SDS011;63009;52.584;5.932;2023-06-10T13:21:30;8.43;;;3.35;;
74528;SDS011;63009;52.584;5.932;2023-06-10T13:23:55;7.53;;;3.70;;
74528;SDS011;63009;52.584;5.932;2023-06-10T13:28:48;9.00;;;3.70;;
74528;SDS011;63009;52.584;5.932;2023-06-10T13:31:13;8.23;;;3.60;;
74528;SDS011;63009;52.584;5.932;2023-06-10T13:33:39;9.18;;;3.65;;
74528;SDS011;63009;52.584;5.932;2023-06-10T13:36:05;8.80;;;3.35;;
74528;SDS011;63009;52.584;5.932;2023-06-10T13:38:30;7.97;;;3.33;;
74528;SDS011;63009;52.584;5.932;2023-06-10T13:40:56;7.78;;;3.30;;
74528;SDS011;63009;52.584;5.932;2023-06-10T13:43:21;9.00;;;3.33;;
74528;SDS011;63009;52.584;5.932;2023-06-10T13:45:46;9.00;;;3.03;;
74528;SDS011;63009;52.584;5.932;2023-06-10T13:48:12;8.33;;;3.53;;
74528;SDS011;63009;52.584;5.932;2023-06-10T13:50:37;8.98;;;2.85;;
74528;SDS011;63009;52.584;5.932;2023-06-10T13:53:03;8.20;;;3.10;;
74528;SDS011;63009;52.584;5.932;2023-06-10T13:55:28;8.70;;;3.77;;
74528;SDS011;63009;52.584;5.932;2023-06-10T13:57:53;9.23;;;3.73;;
74528;SDS011;63009;52.584;5.932;2023-06-10T14:00:19;7.53;;;3.37;;
74528;SDS011;63009;52.584;5.932;2023-06-10T14:02:44;7.83;;;3.20;;
74528;SDS011;63009;52.584;5.932;2023-06-10T14:05:09;8.50;;;3.47;;
74528;SDS011;63009;52.584;5.932;2023-06-10T14:07:35;7.38;;;3.05;;
74528;SDS011;63009;52.584;5.932;2023-06-10T14:10:02;9.52;;;3.08;;
74528;SDS011;63009;52.584;5.932;2023-06-10T14:12:27;9.13;;;3.10;;
74528;SDS011;63009;52.584;5.932;2023-06-10T14:14:53;7.67;;;3.00;;
74528;SDS011;63009;52.584;5.932;2023-06-10T14:17:18;7.97;;;3.07;;
74528;SDS011;63009;52.584;5.932;2023-06-10T14:19:43;7.53;;;3.30;;
74528;SDS011;63009;52.584;5.932;2023-06-10T14:22:08;7.70;;;3.38;;
74528;SDS011;63009;52.584;5.932;2023-06-10T14:24:34;8.10;;;2.85;;
74528;SDS011;63009;52.584;5.932;2023-06-10T14:27:01;8.68;;;3.13;;
74528;SDS011;63009;52.584;5.932;2023-06-10T14:29:26;7.70;;;2.65;;
74528;SDS011;63009;52.584;5.932;2023-06-10T14:31:53;7.57;;;3.03;;
74528;SDS011;63009;52.584;5.932;2023-06-10T14:34:19;8.13;;;3.10;;
74528;SDS011;63009;52.584;5.932;2023-06-10T14:36:44;8.38;;;2.80;;
74528;SDS011;63009;52.584;5.932;2023-06-10T14:39:10;7.57;;;2.90;;
74528;SDS011;63009;52.584;5.932;2023-06-10T14:41:35;7.95;;;2.78;;
74528;SDS011;63009;52.584;5.932;2023-06-10T14:44:00;8.63;;;3.03;;
74528;SDS011;63009;52.584;5.932;2023-06-10T14:46:26;12.27;;;2.60;;
74528;SDS011;63009;52.584;5.932;2023-06-10T14:48:51;7.90;;;2.97;;
74528;SDS011;63009;52.584;5.932;2023-06-10T14:51:16;7.33;;;3.10;;
74528;SDS011;63009;52.584;5.932;2023-06-10T14:53:41;7.67;;;2.90;;
74528;SDS011;63009;52.584;5.932;2023-06-10T14:56:07;8.67;;;2.87;;
74528;SDS011;63009;52.584;5.932;2023-06-10T14:58:32;8.52;;;3.10;;